Terminal Aerodrome Forecast
Issued by NWS Twin Cities, MN

Home | Current Version | Previous Version | Text Only | Print | Product List | Glossary On
Versions: 1 2 3 4 5 6 7 8 9 10 11 12 13 14 15 16 17 18 19 20 21 22 23 24 25 26 27 28
000
FTUS43 KMPX 181100
TAFMSP
TAF
KMSP 181139Z 1812/1918 VRB03KT P6SM SCT020
      TEMPO 1812/1816 BKN020
     FM181600 14003KT P6SM SCT025 BKN120
     FM190600 16003KT P6SM FEW025 BKN800
     FM191200 16005KT P6SM BKN040=

USA.gov is the U.S. government's official web portal to all federal, state and local government web resources and services.